Time;durP1;ratioP1;P1;durP2;ratioP2;P2;SDS_P1;SDS_P2;PMS_P1;PMS_P2;Temp;Humidity;BMP_temperature;BMP_pressure;BME280_temperature;BME280_humidity;BME280_pressure;Samples;Min_cycle;Max_cycle;Signal;HPM_P1;HPM_P2
2022/04/03 00:00:28;;;;;;;7.65;3.45;;;-0.70;99.90;;;;;;5038376;28;20131;-67
2022/04/03 00:02:54;;;;;;;6.90;3.03;;;-0.70;99.90;;;;;;5030793;28;20044;-68
2022/04/03 00:05:20;;;;;;;7.38;3.20;;;-0.60;99.90;;;;;;5059899;28;20040;-67
2022/04/03 00:07:46;;;;;;;9.10;3.30;;;-0.60;99.90;;;;;;5042913;28;20037;-67
2022/04/03 00:10:14;;;;;;;8.07;2.90;;;-0.60;99.90;;;;;;5035195;28;20045;-67
2022/04/03 00:12:41;;;;;;;7.07;2.90;;;-0.50;99.90;;;;;;5022927;28;20469;-68
2022/04/03 00:15:07;;;;;;;10.02;3.15;;;-0.50;99.90;;;;;;5027985;28;20056;-67
2022/04/03 00:17:33;;;;;;;8.25;2.97;;;0.40;99.90;;;;;;5065521;28;20094;-67
2022/04/03 00:19:59;;;;;;;9.82;3.30;;;-0.50;99.90;;;;;;5045481;28;20044;-67
2022/04/03 00:22:25;;;;;;;11.90;3.38;;;-0.40;99.90;;;;;;5011353;28;20206;-68
2022/04/03 00:24:51;;;;;;;8.48;2.95;;;-0.40;99.90;;;;;;5029157;28;20060;-67
2022/04/03 00:27:17;;;;;;;5.70;2.65;;;-0.40;99.90;;;;;;5028318;28;20107;-67
2022/04/03 00:29:43;;;;;;;8.40;3.08;;;-0.40;99.90;;;;;;5035631;28;20084;-67
2022/04/03 00:32:09;;;;;;;8.57;2.85;;;-0.30;99.90;;;;;;5051717;28;20036;-69
2022/04/03 00:34:35;;;;;;;9.93;3.25;;;-0.30;99.90;;;;;;5051105;28;20202;-68
2022/04/03 00:37:00;;;;;;;10.13;3.38;;;-0.30;99.90;;;;;;5055630;28;20288;-68
2022/04/03 00:39:26;;;;;;;9.10;4.38;;;-0.20;99.90;;;;;;5059302;28;20061;-68
2022/04/03 00:41:53;;;;;;;8.63;3.38;;;-0.30;99.90;;;;;;5032081;28;20055;-68
2022/04/03 00:44:18;;;;;;;9.50;3.25;;;-0.20;99.90;;;;;;5032291;28;20040;-68
2022/04/03 00:46:47;;;;;;;7.30;3.08;;;-0.20;99.90;;;;;;5023847;28;20072;-67
2022/04/03 00:49:13;;;;;;;7.88;3.50;;;-0.20;99.90;;;;;;5020764;28;20041;-69
2022/04/03 00:51:39;;;;;;;8.05;3.22;;;-0.20;99.90;;;;;;5033810;28;20390;-68
2022/04/03 00:54:05;;;;;;;10.80;3.38;;;-0.20;99.90;;;;;;5035788;28;20052;-68
2022/04/03 00:56:32;;;;;;;7.88;3.13;;;-0.20;99.90;;;;;;5022854;28;20044;-68
2022/04/03 00:58:58;;;;;;;12.35;3.35;;;-0.20;99.90;;;;;;5003317;28;20045;-68
2022/04/03 01:01:24;;;;;;;8.75;3.13;;;-0.20;99.90;;;;;;5041384;28;20049;-67
2022/04/03 01:03:50;;;;;;;7.47;3.45;;;-0.20;99.90;;;;;;5039033;28;20044;-67
2022/04/03 01:06:16;;;;;;;7.95;3.50;;;-0.20;99.90;;;;;;5046075;28;20468;-68
2022/04/03 01:08:42;;;;;;;8.60;3.65;;;-0.30;99.90;;;;;;5019923;28;20044;-69
2022/04/03 01:11:11;;;;;;;10.45;3.30;;;-0.30;99.90;;;;;;5033895;28;20491;-67
2022/04/03 01:13:47;;;;;;;8.50;3.53;;;-0.30;99.90;;;;;;5019669;28;20205;-68
2022/04/03 01:16:13;;;;;;;7.28;3.15;;;-0.30;99.90;;;;;;5058716;28;20102;-67
2022/04/03 01:18:39;;;;;;;8.88;3.80;;;-0.30;99.90;;;;;;5029563;28;20489;-68
2022/04/03 01:21:04;;;;;;;9.07;3.47;;;-0.40;99.90;;;;;;5041725;28;20041;-68
2022/04/03 01:23:30;;;;;;;7.03;3.55;;;-0.40;99.90;;;;;;5025746;28;20478;-68
2022/04/03 01:25:56;;;;;;;16.88;3.60;;;-0.40;99.90;;;;;;4988781;28;20041;-68
2022/04/03 01:28:24;;;;;;;10.40;3.13;;;-0.40;99.90;;;;;;5016378;28;20127;-68
2022/04/03 01:30:49;;;;;;;9.93;3.53;;;-0.40;99.90;;;;;;5040716;28;20036;-68
2022/04/03 01:33:16;;;;;;;10.13;3.20;;;-0.40;99.90;;;;;;5028386;28;20056;-68
2022/04/03 01:35:42;;;;;;;9.95;3.45;;;-0.40;99.90;;;;;;5051201;28;20493;-68
2022/04/03 01:38:08;;;;;;;11.48;3.10;;;-0.40;99.90;;;;;;5029987;28;20084;-68
2022/04/03 01:40:35;;;;;;;10.73;3.08;;;-0.40;99.90;;;;;;5032700;28;20588;-68
2022/04/03 01:43:06;;;;;;;9.00;3.35;;;-0.30;99.90;;;;;;5033917;28;20049;-67
2022/04/03 01:45:33;;;;;;;8.18;2.97;;;-0.40;99.90;;;;;;5048942;28;20049;-67
2022/04/03 01:48:02;;;;;;;6.78;2.95;;;-0.40;99.90;;;;;;5026386;28;20130;-68
2022/04/03 01:50:28;;;;;;;6.30;2.63;;;-0.40;99.90;;;;;;5028491;28;20037;-67
2022/04/03 01:52:53;;;;;;;7.57;2.85;;;-0.40;99.90;;;;;;5016535;28;20835;-68
2022/04/03 01:55:19;;;;;;;7.50;3.05;;;-0.40;99.90;;;;;;5044141;28;20049;-68
2022/04/03 01:57:45;;;;;;;8.90;3.25;;;-0.40;99.90;;;;;;5022269;28;20053;-68
2022/04/03 02:00:12;;;;;;;7.72;3.00;;;-0.50;99.90;;;;;;5038816;28;20040;-69
2022/04/03 02:02:40;;;;;;;6.88;2.83;;;-0.50;99.90;;;;;;5038990;28;20536;-67
2022/04/03 02:05:07;;;;;;;8.60;3.25;;;-0.50;99.90;;;;;;5036606;28;20041;-69
2022/04/03 02:07:33;;;;;;;8.60;3.22;;;-0.50;99.90;;;;;;5044056;28;20060;-68
2022/04/03 02:10:03;;;;;;;6.60;2.60;;;-0.40;99.90;;;;;;5028548;28;20051;-69
2022/04/03 02:12:29;;;;;;;7.38;2.90;;;-0.40;99.90;;;;;;5034490;28;20080;-69
2022/04/03 02:14:55;;;;;;;6.07;2.67;;;-0.40;99.90;;;;;;5027237;28;20106;-68
2022/04/03 02:17:20;;;;;;;8.88;2.95;;;-0.40;99.90;;;;;;5042143;28;20054;-69
2022/04/03 02:19:46;;;;;;;9.23;2.80;;;-0.40;99.90;;;;;;5005870;28;20489;-69
2022/04/03 02:22:14;;;;;;;11.10;2.90;;;-0.40;99.90;;;;;;5016711;28;20041;-67
2022/04/03 02:24:40;;;;;;;7.68;2.80;;;-0.30;99.90;;;;;;5016207;28;20050;-68
2022/04/03 02:27:06;;;;;;;7.03;2.63;;;-0.30;99.90;;;;;;5014951;28;20042;-68
2022/04/03 02:29:32;;;;;;;7.80;3.00;;;-0.30;99.90;;;;;;5004867;28;20038;-69
2022/04/03 02:31:59;;;;;;;6.80;2.80;;;-0.30;99.90;;;;;;5021170;28;20095;-68
2022/04/03 02:34:29;;;;;;;5.68;2.78;;;-0.30;99.90;;;;;;5012851;28;20094;-68
2022/04/03 02:36:55;;;;;;;9.07;2.67;;;-0.30;99.90;;;;;;5017622;28;20046;-69
2022/04/03 02:39:20;;;;;;;6.65;2.70;;;-0.30;99.90;;;;;;5026338;28;20091;-69
2022/04/03 02:41:47;;;;;;;6.75;2.78;;;-0.20;99.90;;;;;;5024403;28;20037;-69
2022/04/03 02:44:15;;;;;;;5.53;2.47;;;-0.20;99.90;;;;;;5027582;28;20073;-69
2022/04/03 02:46:40;;;;;;;4.85;2.50;;;-0.20;99.90;;;;;;5039533;28;20496;-69
2022/04/03 02:49:08;;;;;;;9.18;2.72;;;-0.10;99.90;;;;;;5013433;28;20121;-69
2022/04/03 02:51:35;;;;;;;5.43;2.22;;;-0.10;99.90;;;;;;5013547;28;20522;-68
2022/04/03 02:54:01;;;;;;;5.53;2.25;;;0.00;99.90;;;;;;5015242;28;20414;-69
2022/04/03 02:56:27;;;;;;;4.30;2.00;;;0.00;99.90;;;;;;5010287;28;20065;-69
2022/04/03 02:58:53;;;;;;;6.03;2.60;;;0.00;99.90;;;;;;5020830;28;20559;-68
2022/04/03 03:01:20;;;;;;;6.25;2.30;;;0.10;99.90;;;;;;5019996;28;20060;-69
2022/04/03 03:03:45;;;;;;;5.07;1.98;;;0.10;99.90;;;;;;5022681;28;20048;-69
2022/04/03 03:06:11;;;;;;;8.63;2.33;;;0.10;99.90;;;;;;5025141;28;20486;-69
2022/04/03 03:08:37;;;;;;;7.43;2.17;;;0.10;99.90;;;;;;5017407;28;20056;-70
2022/04/03 03:11:04;;;;;;;5.82;2.17;;;0.70;99.90;;;;;;5024146;28;20041;-69
2022/04/03 03:13:29;;;;;;;4.88;2.10;;;0.20;99.90;;;;;;5022811;28;20107;-69
2022/04/03 03:15:55;;;;;;;5.32;2.28;;;0.20;99.90;;;;;;5020256;28;20140;-69
2022/04/03 03:18:21;;;;;;;6.72;1.95;;;0.20;99.90;;;;;;5020270;28;20037;-69
2022/04/03 03:20:46;;;;;;;6.32;2.08;;;0.50;99.90;;;;;;5004447;28;20044;-69
2022/04/03 03:23:12;;;;;;;6.72;2.30;;;0.20;99.90;;;;;;5020644;28;20128;-69
2022/04/03 03:25:38;;;;;;;6.07;2.50;;;0.30;99.90;;;;;;5046638;28;20076;-70
2022/04/03 03:28:05;;;;;;;5.43;2.15;;;0.30;99.90;;;;;;5026261;28;20505;-69
2022/04/03 03:30:30;;;;;;;5.95;2.53;;;0.30;99.90;;;;;;5046191;28;20461;-68
2022/04/03 03:32:56;;;;;;;5.82;2.13;;;0.40;99.90;;;;;;5045478;28;20133;-70
2022/04/03 03:35:22;;;;;;;6.70;2.20;;;0.40;99.90;;;;;;5022941;28;20410;-69
2022/04/03 03:37:47;;;;;;;4.80;2.30;;;0.40;99.90;;;;;;5040612;28;20037;-70
2022/04/03 03:40:14;;;;;;;4.65;2.17;;;0.40;99.90;;;;;;5021629;28;20107;-70
2022/04/03 03:42:43;;;;;;;5.60;2.10;;;0.40;99.90;;;;;;5038508;28;20030;-69
2022/04/03 03:45:13;;;;;;;7.22;2.20;;;0.30;99.90;;;;;;5020859;28;20389;-70
2022/04/03 03:47:42;;;;;;;4.07;1.80;;;0.30;99.90;;;;;;5035906;28;20036;-69
2022/04/03 03:50:07;;;;;;;5.32;2.35;;;0.30;99.90;;;;;;5039372;28;20040;-69
2022/04/03 03:52:33;;;;;;;6.75;1.90;;;0.30;99.90;;;;;;5023848;28;20553;-70
2022/04/03 03:54:59;;;;;;;8.15;2.20;;;0.20;99.90;;;;;;5012958;28;20055;-70
2022/04/03 03:57:25;;;;;;;6.35;2.20;;;0.20;99.90;;;;;;5019895;28;20060;-70
2022/04/03 03:59:52;;;;;;;5.45;1.70;;;0.10;99.90;;;;;;5018387;28;20044;-69
2022/04/03 04:02:18;;;;;;;4.88;2.00;;;0.10;99.90;;;;;;5016434;28;20052;-71
2022/04/03 04:04:44;;;;;;;4.65;1.92;;;0.10;99.90;;;;;;5027795;28;20045;-70
2022/04/03 04:07:10;;;;;;;5.78;1.90;;;0.10;99.90;;;;;;5036180;28;20052;-69
2022/04/03 04:09:36;;;;;;;8.30;1.92;;;0.00;99.90;;;;;;5005443;28;20135;-70
2022/04/03 04:12:03;;;;;;;5.43;1.88;;;0.00;99.90;;;;;;5021519;28;20052;-69
2022/04/03 04:14:29;;;;;;;5.43;1.80;;;0.00;99.90;;;;;;5046691;28;20051;-69
2022/04/03 04:16:55;;;;;;;4.32;1.75;;;0.00;99.90;;;;;;5026797;28;20048;-71
2022/04/03 04:19:20;;;;;;;5.38;1.88;;;0.00;99.90;;;;;;5020016;28;20053;-69
2022/04/03 04:21:46;;;;;;;3.55;1.95;;;0.00;99.90;;;;;;5044832;28;20048;-70
2022/04/03 04:24:12;;;;;;;4.97;1.80;;;0.00;99.90;;;;;;5041543;28;20048;-70
2022/04/03 04:26:41;;;;;;;5.13;2.42;;;0.00;99.90;;;;;;5034827;28;20061;-70
2022/04/03 04:29:07;;;;;;;7.85;2.47;;;0.00;99.90;;;;;;5005269;28;20029;-69
2022/04/03 04:31:33;;;;;;;7.88;2.25;;;0.00;99.90;;;;;;5019167;28;20052;-69
2022/04/03 04:33:59;;;;;;;7.45;2.33;;;0.00;99.90;;;;;;5040163;28;20040;-70
2022/04/03 04:36:26;;;;;;;5.13;2.00;;;0.00;99.90;;;;;;5043161;28;20174;-69
2022/04/03 04:38:51;;;;;;;4.63;2.13;;;0.00;99.90;;;;;;5026555;28;20132;-69
2022/04/03 04:41:17;;;;;;;5.63;2.00;;;0.00;99.90;;;;;;5031310;28;20116;-70
2022/04/03 04:43:43;;;;;;;6.45;2.30;;;0.00;99.90;;;;;;5017551;28;20041;-69
2022/04/03 04:46:09;;;;;;;4.22;2.13;;;0.00;99.90;;;;;;5035127;28;20607;-69
2022/04/03 04:48:34;;;;;;;5.28;2.25;;;-0.10;99.90;;;;;;5034914;28;20117;-70
2022/04/03 04:51:01;;;;;;;4.70;2.40;;;-0.10;99.90;;;;;;5023521;28;20061;-70
2022/04/03 04:53:27;;;;;;;7.03;2.05;;;-0.10;99.90;;;;;;5003167;28;20037;-69
2022/04/03 04:55:53;;;;;;;8.15;2.28;;;-0.10;99.90;;;;;;5024048;28;20434;-69
2022/04/03 04:58:18;;;;;;;6.07;2.50;;;-0.20;99.90;;;;;;4999796;28;20383;-68
2022/04/03 05:00:44;;;;;;;8.43;2.22;;;-0.20;99.90;;;;;;5021435;28;20048;-68
2022/04/03 05:03:10;;;;;;;6.53;2.30;;;-0.20;99.90;;;;;;5037725;28;20573;-68
2022/04/03 05:05:36;;;;;;;4.93;2.17;;;-0.20;99.90;;;;;;5006305;28;20048;-69
2022/04/03 05:08:01;;;;;;;5.88;2.58;;;-0.30;99.90;;;;;;5028205;28;20094;-68
2022/04/03 05:10:29;;;;;;;6.05;2.40;;;0.10;99.90;;;;;;5029184;28;20454;-69
2022/04/03 05:12:55;;;;;;;5.85;2.15;;;-0.30;99.90;;;;;;5039905;28;20087;-69
2022/04/03 05:15:21;;;;;;;5.45;1.92;;;-0.30;99.90;;;;;;5007934;28;20374;-69
2022/04/03 05:17:48;;;;;;;5.32;2.15;;;-0.30;99.90;;;;;;5043423;28;20634;-71
2022/04/03 05:20:15;;;;;;;6.18;2.17;;;-0.30;99.90;;;;;;5046231;28;20057;-69
2022/04/03 05:22:42;;;;;;;6.22;2.25;;;-0.30;99.90;;;;;;5027212;28;20102;-68
2022/04/03 05:25:10;;;;;;;6.20;2.35;;;-0.30;99.90;;;;;;5020049;28;20048;-69
2022/04/03 05:27:37;;;;;;;6.18;2.10;;;-0.20;99.90;;;;;;5045621;28;20056;-69
2022/04/03 05:30:03;;;;;;;5.72;2.35;;;-0.20;99.90;;;;;;5025637;28;20074;-70
2022/04/03 05:32:31;;;;;;;6.95;2.40;;;-0.20;99.90;;;;;;5008422;28;20041;-70
2022/04/03 05:34:59;;;;;;;6.28;2.30;;;-0.10;99.90;;;;;;5021540;28;20052;-69
2022/04/03 05:37:25;;;;;;;9.70;2.40;;;-0.10;99.90;;;;;;5042888;28;20521;-69
2022/04/03 05:39:51;;;;;;;7.00;2.28;;;-0.10;99.90;;;;;;5029912;28;20041;-70
2022/04/03 05:42:18;;;;;;;8.13;2.10;;;0.00;99.90;;;;;;5039863;28;20037;-69
2022/04/03 05:44:44;;;;;;;5.72;2.22;;;0.00;99.90;;;;;;5041522;28;20112;-69
2022/04/03 05:47:09;;;;;;;7.78;2.30;;;0.00;99.90;;;;;;5039965;28;20132;-70
2022/04/03 05:49:35;;;;;;;6.22;1.85;;;0.00;99.90;;;;;;5026651;28;20753;-69
2022/04/03 05:52:02;;;;;;;6.35;1.60;;;0.10;99.90;;;;;;5008418;28;20508;-69
2022/04/03 05:54:27;;;;;;;4.28;1.70;;;0.10;99.90;;;;;;5026223;28;20048;-68
2022/04/03 05:56:53;;;;;;;7.93;1.55;;;0.20;99.90;;;;;;5040172;28;20040;-70
2022/04/03 05:59:19;;;;;;;4.60;1.52;;;0.50;99.90;;;;;;5006919;28;20049;-69
2022/04/03 06:01:49;;;;;;;4.40;1.80;;;1.50;99.90;;;;;;5038721;28;20102;-70
2022/04/03 06:04:15;;;;;;;7.25;1.75;;;2.60;99.90;;;;;;5020499;28;20061;-70
2022/04/03 06:06:42;;;;;;;6.32;1.38;;;2.90;99.90;;;;;;5023189;28;20858;-69
2022/04/03 06:09:08;;;;;;;4.13;1.00;;;3.30;99.90;;;;;;5047562;22;20442;-82
2022/04/03 06:11:34;;;;;;;5.72;1.40;;;2.90;99.90;;;;;;5016447;28;20045;-82
2022/04/03 06:14:03;;;;;;;4.28;1.20;;;3.40;99.90;;;;;;4989519;28;20049;-82
2022/04/03 06:16:29;;;;;;;5.97;1.20;;;3.20;99.90;;;;;;5018217;28;20037;-82
2022/04/03 06:18:55;;;;;;;5.75;1.23;;;3.60;99.90;;;;;;5017319;28;20083;-82
2022/04/03 06:21:21;;;;;;;3.50;1.13;;;2.80;99.90;;;;;;4988859;28;20041;-82
2022/04/03 06:23:47;;;;;;;4.07;1.13;;;3.60;99.90;;;;;;5023543;28;20066;-82
2022/04/03 06:26:13;;;;;;;5.90;1.23;;;2.70;99.90;;;;;;4990694;28;20065;-82
2022/04/03 06:28:39;;;;;;;5.97;1.40;;;3.20;99.90;;;;;;5017316;28;20606;-83
2022/04/03 06:31:05;;;;;;;3.50;1.27;;;2.70;99.90;;;;;;4999081;28;20079;-82
2022/04/03 06:33:32;;;;;;;6.15;1.80;;;2.80;99.90;;;;;;5013195;28;20057;-82
2022/04/03 06:35:58;;;;;;;3.97;1.17;;;2.90;99.90;;;;;;5017704;28;20034;-82
2022/04/03 06:38:24;;;;;;;4.05;1.40;;;3.00;99.90;;;;;;4975664;28;20137;-82
2022/04/03 06:40:51;;;;;;;4.72;1.27;;;3.60;99.90;;;;;;4983687;28;20073;-82
2022/04/03 06:43:21;;;;;;;6.82;1.50;;;4.50;99.90;;;;;;4992543;28;20030;-82
2022/04/03 06:45:48;;;;;;;5.40;1.55;;;5.10;99.90;;;;;;4992883;28;20049;-82
2022/04/03 06:48:14;;;;;;;5.97;1.02;;;6.70;99.90;;;;;;5013653;28;20071;-81
2022/04/03 06:50:40;;;;;;;5.22;1.20;;;7.70;99.90;;;;;;4996213;28;20037;-83
2022/04/03 06:53:06;;;;;;;8.05;1.38;;;7.50;99.90;;;;;;5014264;28;20049;-84
2022/04/03 06:55:35;;;;;;;5.60;1.30;;;7.80;99.90;;;;;;5018329;28;20044;-81
2022/04/03 06:58:02;;;;;;;4.28;1.30;;;8.30;99.90;;;;;;4998382;28;20157;-82
2022/04/03 07:00:29;;;;;;;4.65;1.20;;;8.50;99.90;;;;;;4997407;28;20126;-81
2022/04/03 07:02:55;;;;;;;2.28;1.02;;;9.60;99.90;;;;;;4997788;28;20787;-82
2022/04/03 07:05:21;;;;;;;6.43;1.00;;;10.90;99.90;;;;;;4998325;28;20044;-82
2022/04/03 07:07:51;;;;;;;3.63;1.10;;;11.50;99.90;;;;;;4998179;28;20049;-82
2022/04/03 07:10:17;;;;;;;6.15;1.10;;;11.40;99.90;;;;;;5002963;28;20049;-82
2022/04/03 07:12:45;;;;;;;5.22;0.93;;;12.20;99.90;;;;;;5015455;28;20095;-83
2022/04/03 07:15:14;;;;;;;3.28;0.98;;;12.50;99.90;;;;;;4976441;28;20037;-82
2022/04/03 07:17:41;;;;;;;8.25;1.48;;;12.10;99.90;;;;;;5017011;28;21133;-81
2022/04/03 07:20:08;;;;;;;3.45;1.00;;;11.70;99.90;;;;;;4996484;28;20095;-82
2022/04/03 07:22:33;;;;;;;6.45;1.17;;;11.30;99.90;;;;;;4982852;28;20497;-81
2022/04/03 07:25:00;;;;;;;9.23;1.17;;;10.70;99.90;;;;;;5020814;28;20047;-82
2022/04/03 07:27:27;;;;;;;7.97;1.10;;;10.00;99.90;;;;;;4985690;28;20097;-82
2022/04/03 07:29:53;;;;;;;4.22;1.35;;;9.60;99.90;;;;;;5002041;28;20071;-81
2022/04/03 07:32:18;;;;;;;2.58;0.93;;;9.20;99.90;;;;;;5024178;28;20113;-82
2022/04/03 07:34:45;;;;;;;4.15;0.85;;;8.90;99.90;;;;;;5023252;28;20056;-81
2022/04/03 07:37:11;;;;;;;4.82;0.90;;;8.80;99.90;;;;;;5015519;28;20580;-81
2022/04/03 07:39:37;;;;;;;4.25;1.00;;;8.80;99.90;;;;;;5044857;28;20037;-81
2022/04/03 07:42:03;;;;;;;4.00;1.00;;;8.80;99.90;;;;;;5026725;28;20066;-80
2022/04/03 07:44:29;;;;;;;7.57;1.05;;;8.80;99.90;;;;;;5005932;28;20089;-84
2022/04/03 07:46:55;;;;;;;3.78;0.73;;;9.30;99.90;;;;;;5031888;28;20049;-84
2022/04/03 07:49:21;;;;;;;5.07;0.98;;;8.90;99.90;;;;;;5008114;28;20671;-83
2022/04/03 07:51:48;;;;;;;2.72;0.90;;;8.90;99.90;;;;;;5030667;28;20049;-89
2022/04/03 07:54:14;;;;;;;8.30;0.88;;;9.30;99.90;;;;;;5025921;28;20057;-83
2022/04/03 07:56:40;;;;;;;4.45;0.68;;;8.50;99.90;;;;;;5010024;28;20079;-85
2022/04/03 07:59:08;;;;;;;4.47;0.70;;;8.40;99.90;;;;;;5028437;28;20110;-84
2022/04/03 08:01:34;;;;;;;7.65;0.80;;;8.30;99.90;;;;;;5007733;28;20045;-82
2022/04/03 08:04:00;;;;;;;4.10;0.90;;;8.10;99.90;;;;;;5006033;28;20088;-82
2022/04/03 08:06:26;;;;;;;3.60;0.60;;;8.20;99.90;;;;;;4989858;28;20569;-82
2022/04/03 08:08:52;;;;;;;2.33;0.60;;;8.10;99.90;;;;;;5017319;28;20141;-82
2022/04/03 08:11:18;;;;;;;8.35;1.05;;;7.90;99.90;;;;;;4989009;28;20737;-82
2022/04/03 08:13:47;;;;;;;6.60;0.93;;;7.60;99.90;;;;;;5009573;28;20713;-85
2022/04/03 08:16:15;;;;;;;2.45;0.75;;;7.50;99.90;;;;;;5024965;28;20054;-84
2022/04/03 08:18:41;;;;;;;4.43;1.00;;;7.50;99.90;;;;;;5010827;28;20511;-82
2022/04/03 08:21:07;;;;;;;9.23;1.50;;;7.50;99.90;;;;;;5007018;28;20041;-84
2022/04/03 08:23:33;;;;;;;3.95;0.93;;;7.60;99.90;;;;;;4995402;28;20091;-82
2022/04/03 08:25:59;;;;;;;5.75;1.15;;;7.80;99.90;;;;;;4992059;28;20049;-82
2022/04/03 08:28:24;;;;;;;3.03;1.05;;;7.90;99.90;;;;;;5027296;28;20120;-82
2022/04/03 08:30:50;;;;;;;3.55;1.00;;;8.10;99.90;;;;;;4993729;28;20052;-81
2022/04/03 08:33:16;;;;;;;4.00;0.90;;;8.40;99.90;;;;;;5024007;28;20044;-82
2022/04/03 08:35:42;;;;;;;4.07;0.90;;;8.80;99.90;;;;;;5023905;28;20076;-84
2022/04/03 08:38:08;;;;;;;3.55;0.82;;;9.20;99.90;;;;;;5007404;28;20075;-82
2022/04/03 08:40:34;;;;;;;8.77;1.08;;;9.30;99.90;;;;;;5032606;28;20041;-83
2022/04/03 08:43:04;;;;;;;5.50;1.10;;;9.40;99.90;;;;;;5031466;28;20052;-81
2022/04/03 08:45:30;;;;;;;4.57;0.90;;;9.60;99.90;;;;;;4996563;28;20037;-83
2022/04/03 08:47:59;;;;;;;3.40;0.90;;;9.50;99.90;;;;;;5022385;28;20054;-84
2022/04/03 08:50:34;;;;;;;4.22;0.95;;;9.30;99.90;;;;;;5012115;28;20547;-83
2022/04/03 08:53:03;;;;;;;4.25;0.68;;;8.80;99.90;;;;;;5029114;28;20054;-82
2022/04/03 08:55:30;;;;;;;2.25;0.75;;;8.50;99.90;;;;;;5010380;28;20041;-83
2022/04/03 08:57:56;;;;;;;4.88;0.57;;;8.40;99.90;;;;;;5012062;28;20761;-83
2022/04/03 09:00:22;;;;;;;4.35;0.80;;;8.60;99.90;;;;;;5001156;28;20051;-90
2022/04/03 09:02:50;;;;;;;3.90;0.80;;;8.80;99.90;;;;;;5035750;28;20046;-83
2022/04/03 09:05:16;;;;;;;5.97;0.70;;;8.90;99.90;;;;;;4996117;28;20440;-84
2022/04/03 09:07:43;;;;;;;4.03;0.88;;;8.60;99.90;;;;;;5010236;28;20041;-85
2022/04/03 09:10:14;;;;;;;4.97;1.20;;;8.90;99.90;;;;;;5005532;28;20132;-83
2022/04/03 09:12:47;;;;;;;4.05;1.10;;;8.00;99.90;;;;;;5035533;28;20110;-84
2022/04/03 09:15:15;;;;;;;3.67;0.68;;;7.80;99.90;;;;;;5027759;28;20050;-83
2022/04/03 09:17:44;;;;;;;3.72;0.70;;;8.00;99.90;;;;;;5012083;28;20049;-83
2022/04/03 09:20:15;;;;;;;4.50;0.82;;;8.30;99.90;;;;;;5014224;28;20148;-87
2022/04/03 09:22:48;;;;;;;2.33;0.60;;;8.70;99.90;;;;;;5008966;28;20045;-83
2022/04/03 09:25:16;;;;;;;4.50;0.80;;;9.10;99.90;;;;;;4990763;28;20053;-82
2022/04/03 09:27:53;;;;;;;3.45;0.75;;;9.60;99.90;;;;;;5020291;28;20694;-82
2022/04/03 09:30:22;;;;;;;3.75;0.93;;;10.00;99.90;;;;;;5034854;28;20056;-83
2022/04/03 09:32:51;;;;;;;5.25;0.80;;;9.90;99.90;;;;;;5010372;28;20042;-85
2022/04/03 09:35:20;;;;;;;4.43;0.73;;;9.60;99.90;;;;;;5029749;28;20045;-83
2022/04/03 09:38:12;;;;;;;3.67;1.00;;;9.40;99.90;;;;;;5029367;28;20130;-83
2022/04/03 09:40:51;;;;;;;6.35;0.90;;;9.20;99.90;;;;;;5007647;28;20041;-86
2022/04/03 09:43:38;;;;;;;1.63;0.60;;;9.60;99.90;;;;;;5027611;28;20046;-82
2022/04/03 09:46:06;;;;;;;2.30;0.70;;;10.00;99.90;;;;;;5010252;28;20049;-83
2022/04/03 09:48:59;;;;;;;3.28;0.45;;;10.40;99.90;;;;;;4995578;28;20037;-84
2022/04/03 09:51:29;;;;;;;5.47;0.77;;;10.10;99.90;;;;;;5000766;28;20053;-83
2022/04/03 09:54:02;;;;;;;3.35;0.80;;;9.60;99.90;;;;;;5008108;28;20521;-83
2022/04/03 09:56:34;;;;;;;1.90;0.75;;;9.20;99.90;;;;;;5007817;28;20053;-82
2022/04/03 09:59:03;;;;;;;5.63;0.70;;;9.20;99.90;;;;;;5009651;28;20049;-84
2022/04/03 10:01:34;;;;;;;6.97;1.00;;;9.50;99.90;;;;;;5023882;28;20136;-83
2022/04/03 10:04:04;;;;;;;1.67;0.60;;;9.70;99.90;;;;;;5022870;28;20403;-83
2022/04/03 10:06:31;;;;;;;4.25;0.90;;;9.80;99.90;;;;;;5009648;28;20033;-82
2022/04/03 10:08:58;;;;;;;2.83;0.60;;;9.80;99.90;;;;;;5033821;28;20115;-83
2022/04/03 10:11:25;;;;;;;3.90;0.80;;;10.30;99.90;;;;;;5007551;28;20041;-83
2022/04/03 10:13:51;;;;;;;2.40;0.60;;;10.10;99.90;;;;;;5006815;28;20042;-83
2022/04/03 10:16:18;;;;;;;3.08;0.60;;;10.00;99.90;;;;;;4991210;28;20041;-84
2022/04/03 10:18:46;;;;;;;5.63;0.75;;;9.50;99.90;;;;;;5002984;28;20053;-82
2022/04/03 10:21:45;;;;;;;2.08;0.80;;;9.10;99.90;;;;;;4980157;28;20046;-84
2022/04/03 10:24:23;;;;;;;5.60;0.75;;;9.00;99.90;;;;;;5003440;28;20084;-82
2022/04/03 10:26:59;;;;;;;3.38;0.80;;;9.20;99.90;;;;;;4997831;28;20071;-81
2022/04/03 10:29:29;;;;;;;4.10;0.73;;;9.50;99.90;;;;;;5012694;28;20045;-81
2022/04/03 10:32:03;;;;;;;3.50;0.80;;;9.70;99.90;;;;;;5004052;28;20045;-82
2022/04/03 10:34:29;;;;;;;2.38;0.50;;;10.10;99.90;;;;;;5000390;28;20473;-82
2022/04/03 10:36:55;;;;;;;2.92;0.85;;;9.70;99.90;;;;;;5023425;28;20440;-83
2022/04/03 10:39:27;;;;;;;2.17;0.68;;;9.50;99.90;;;;;;5005431;28;20049;-87
2022/04/03 10:42:24;;;;;;;3.45;0.70;;;9.20;99.90;;;;;;5006369;28;20120;-85
2022/04/03 10:45:12;;;;;;;4.97;0.70;;;9.00;99.90;;;;;;4993642;28;20037;-84
2022/04/03 10:47:43;;;;;;;1.67;0.40;;;8.70;99.90;;;;;;5005838;28;20630;-83
2022/04/03 10:50:12;;;;;;;3.58;0.47;;;8.40;99.90;;;;;;5008547;28;20045;-86
2022/04/03 10:52:41;;;;;;;1.95;0.40;;;8.20;99.90;;;;;;5007612;28;20087;-82
2022/04/03 10:55:19;;;;;;;1.75;0.38;;;8.10;99.90;;;;;;5003714;28;20041;-82
2022/04/03 10:57:48;;;;;;;2.15;0.65;;;8.10;99.90;;;;;;4993082;28;20083;-85
2022/04/03 11:00:13;;;;;;;1.02;0.40;;;8.20;99.90;;;;;;5003607;28;20045;-84
2022/04/03 11:02:57;;;;;;;0.73;0.40;;;8.30;99.90;;;;;;5002033;28;20687;-88
2022/04/03 11:05:26;;;;;;;2.72;0.50;;;8.50;99.90;;;;;;4986727;28;20127;-84
2022/04/03 11:08:16;;;;;;;3.58;0.50;;;8.90;99.90;;;;;;5008662;28;20060;-82
2022/04/03 11:10:52;;;;;;;1.25;0.40;;;8.80;99.90;;;;;;5007138;28;20065;-82
2022/04/03 11:13:42;;;;;;;2.05;0.52;;;9.10;99.90;;;;;;5005358;28;20445;-82
2022/04/03 11:16:09;;;;;;;2.53;0.70;;;9.50;99.90;;;;;;4986550;28;20045;-83
2022/04/03 11:18:50;;;;;;;5.35;0.50;;;9.50;99.90;;;;;;5000080;28;20065;-82
2022/04/03 11:21:17;;;;;;;4.45;0.70;;;9.60;99.90;;;;;;5004856;28;20041;-82
2022/04/03 11:24:10;;;;;;;4.53;0.88;;;9.70;99.90;;;;;;5020874;28;20626;-88
2022/04/03 11:26:41;;;;;;;0.90;0.38;;;10.30;99.90;;;;;;4985657;28;20076;-86
2022/04/03 11:29:09;;;;;;;1.53;0.63;;;10.50;99.90;;;;;;5027346;28;20132;-83
2022/04/03 11:31:36;;;;;;;4.93;0.77;;;9.80;99.90;;;;;;4988923;28;20527;-83
2022/04/03 11:34:03;;;;;;;5.00;0.70;;;9.80;99.90;;;;;;5002925;28;20052;-82
2022/04/03 11:36:30;;;;;;;2.58;0.60;;;9.50;99.90;;;;;;4984886;28;20140;-83
2022/04/03 11:38:58;;;;;;;0.50;0.40;;;9.10;99.90;;;;;;5008362;28;20048;-87
2022/04/03 11:41:31;;;;;;;1.27;0.30;;;8.60;99.90;;;;;;4993917;28;20473;-83
2022/04/03 11:44:03;;;;;;;2.75;0.40;;;8.20;99.90;;;;;;5012116;28;20080;-83
2022/04/03 11:46:45;;;;;;;1.30;0.60;;;7.80;99.90;;;;;;5010601;28;20049;-84
2022/04/03 11:49:21;;;;;;;2.72;0.52;;;7.50;99.90;;;;;;5027581;28;20045;-84
2022/04/03 11:51:54;;;;;;;2.33;0.68;;;7.30;99.90;;;;;;5007441;28;20047;-84
2022/04/03 11:54:25;;;;;;;2.53;0.70;;;7.20;99.90;;;;;;5015916;28;20041;-83
2022/04/03 11:57:05;;;;;;;3.85;0.60;;;7.30;99.90;;;;;;4998768;28;20048;-82
2022/04/03 11:59:36;;;;;;;1.90;0.60;;;7.30;99.90;;;;;;5030570;28;20095;-83
2022/04/03 12:02:10;;;;;;;2.35;0.70;;;7.40;99.90;;;;;;5016741;28;20072;-83
2022/04/03 12:04:56;;;;;;;3.05;0.70;;;7.50;99.90;;;;;;5024690;28;20517;-83
2022/04/03 12:07:22;;;;;;;3.80;0.60;;;7.60;99.90;;;;;;4992012;28;20049;-84
2022/04/03 12:09:53;;;;;;;1.17;0.63;;;7.70;99.90;;;;;;5020581;28;20230;-83
2022/04/03 12:12:24;;;;;;;3.70;1.10;;;7.70;99.90;;;;;;4989177;28;20048;-83
2022/04/03 12:14:50;;;;;;;5.15;1.20;;;8.00;99.90;;;;;;4987863;28;20034;-82
2022/04/03 12:17:16;;;;;;;4.45;0.90;;;8.30;99.90;;;;;;5005358;28;20056;-83
2022/04/03 12:19:51;;;;;;;5.55;0.70;;;8.40;99.90;;;;;;5023989;28;20497;-83
2022/04/03 12:22:19;;;;;;;4.97;0.88;;;8.30;99.90;;;;;;5006420;28;20053;-83
2022/04/03 12:24:45;;;;;;;3.85;0.82;;;8.10;99.90;;;;;;5021962;28;20056;-82
2022/04/03 12:27:14;;;;;;;2.50;0.85;;;8.00;99.90;;;;;;5017333;28;20073;-85
2022/04/03 12:29:49;;;;;;;6.68;1.08;;;7.90;99.90;;;;;;5023057;28;20449;-82
2022/04/03 12:32:25;;;;;;;4.75;0.80;;;7.90;99.90;;;;;;5009608;28;20080;-83
2022/04/03 12:34:51;;;;;;;2.03;0.82;;;8.00;99.90;;;;;;5031155;28;20092;-82
2022/04/03 12:37:18;;;;;;;5.78;1.23;;;8.10;99.90;;;;;;5010589;28;20592;-83
2022/04/03 12:40:08;;;;;;;3.20;0.98;;;8.00;99.90;;;;;;5023278;28;20046;-85
2022/04/03 12:42:41;;;;;;;2.88;0.90;;;8.00;99.90;;;;;;4986334;28;20072;-83
2022/04/03 12:45:21;;;;;;;3.53;0.82;;;8.00;99.90;;;;;;5002538;28;20052;-85
2022/04/03 12:48:03;;;;;;;5.05;1.20;;;8.00;99.90;;;;;;5025658;28;20057;-82
2022/04/03 12:50:41;;;;;;;3.50;0.90;;;8.10;99.90;;;;;;5014790;28;20038;-82
2022/04/03 12:53:12;;;;;;;3.40;1.02;;;8.20;99.90;;;;;;4988559;28;20055;-82
2022/04/03 12:55:47;;;;;;;;;;;8.10;99.90;;;;;;4988626;28;20099;-81
2022/04/03 12:58:24;;;;;;;4.38;1.00;;;8.10;99.90;;;;;;4985927;28;19929;-83